Time,TemperatureF,DewpointF,PressureIn,WindDirection,WindDirectionDegrees,WindSpeedMPH,WindSpeedGustMPH,Humidity,HourlyPrecipIn,Conditions,Clouds,dailyrainin,SoftwareType,DateUTC
2013-03-12 00:00:00,37.4,14.7,29.44,SW,226,4.0,4.0,39,0.00,,---,0.00,VWS V14.01,2013-03-12 04:00:00,
2013-03-12 00:03:00,37.4,14.7,29.44,SE,139,3.6,4.0,39,0.00,,---,0.00,VWS V14.01,2013-03-12 04:03:00,
2013-03-12 00:06:00,37.2,15.1,29.44,SW,216,4.0,4.0,40,0.00,,---,0.00,VWS V14.01,2013-03-12 04:06:00,
2013-03-12 00:12:00,37.2,15.1,29.44,SE,126,3.6,3.6,40,0.00,,---,0.00,VWS V14.01,2013-03-12 04:12:00,
2013-03-12 00:18:00,37.4,14.7,29.44,SSW,208,3.6,3.6,39,0.00,,---,0.00,VWS V14.01,2013-03-12 04:18:00,
2013-03-12 00:23:00,37.4,14.7,29.44,ESE,118,4.0,4.0,39,0.00,,---,0.00,VWS V14.01,2013-03-12 04:23:00,
2013-03-12 00:29:00,37.4,14.7,29.44,SW,215,5.4,5.4,39,0.00,,---,0.00,VWS V14.01,2013-03-12 04:29:00,
2013-03-12 00:35:00,37.4,14.7,29.44,SW,216,3.1,3.6,39,0.00,,---,0.00,VWS V14.01,2013-03-12 04:35:00,
2013-03-12 00:40:00,37.2,15.1,29.44,SW,221,5.4,5.4,40,0.00,,---,0.00,VWS V14.01,2013-03-12 04:40:00,
2013-03-12 00:45:00,37.0,15.0,29.44,West,259,6.3,6.3,40,0.00,,---,0.00,VWS V14.01,2013-03-12 04:45:00,
2013-03-12 00:51:00,37.0,15.0,29.44,ENE,58,3.6,3.6,40,0.00,,---,0.00,VWS V14.01,2013-03-12 04:51:00,
2013-03-12 00:56:00,37.0,15.0,29.44,SW,229,0.0,3.6,40,0.00,,---,0.00,VWS V14.01,2013-03-12 04:56:00,
2013-03-12 01:02:00,37.0,15.5,29.44,SW,226,3.1,3.1,41,0.00,,---,0.00,VWS V14.01,2013-03-12 05:02:00,
2013-03-12 01:07:00,37.0,15.5,29.44,SSW,213,3.1,3.1,41,0.00,,---,0.00,VWS V14.01,2013-03-12 05:07:00,
2013-03-12 01:13:00,36.9,15.4,29.44,ESE,110,3.6,3.6,41,0.00,,---,0.00,VWS V14.01,2013-03-12 05:13:00,
2013-03-12 01:18:00,36.9,15.4,29.44,WSW,249,4.0,4.0,41,0.00,,---,0.00,VWS V14.01,2013-03-12 05:18:00,
2013-03-12 01:24:00,36.9,15.4,29.44,SSW,209,5.8,5.8,41,0.00,,---,0.00,VWS V14.01,2013-03-12 05:24:00,
2013-03-12 01:29:00,36.9,14.8,29.44,SSW,209,5.8,5.8,40,0.00,,---,0.00,VWS V14.01,2013-03-12 05:29:00,
2013-03-12 01:35:00,36.9,14.8,29.44,SE,143,4.0,4.0,40,0.00,,---,0.00,VWS V14.01,2013-03-12 05:35:00,
2013-03-12 01:41:00,36.9,14.8,29.44,SW,231,0.0,0.0,40,0.00,,---,0.00,VWS V14.01,2013-03-12 05:41:00,
2013-03-12 01:48:00,36.9,15.4,29.44,SW,232,2.7,2.7,41,0.00,,---,0.00,VWS V14.01,2013-03-12 05:48:00,
2013-03-12 01:54:00,36.9,15.4,29.44,SSE,165,3.6,3.6,41,0.00,,---,0.00,VWS V14.01,2013-03-12 05:54:00,
2013-03-12 02:00:00,37.0,16.1,29.47,SSE,167,5.8,5.8,42,0.00,,---,0.00,VWS V14.01,2013-03-12 06:00:00,
2013-03-12 02:06:00,36.9,15.4,29.47,SW,216,3.1,8.7,41,0.00,,---,0.00,VWS V14.01,2013-03-12 06:06:00,
2013-03-12 02:11:00,36.9,15.4,29.47,SW,216,3.1,3.1,41,0.00,,---,0.00,VWS V14.01,2013-03-12 06:11:00,
2013-03-12 02:18:00,36.9,15.4,29.47,ESE,123,3.6,4.0,41,0.00,,---,0.00,VWS V14.01,2013-03-12 06:18:00,
2013-03-12 02:24:00,36.9,15.4,29.47,South,179,2.7,2.7,41,0.00,,---,0.00,VWS V14.01,2013-03-12 06:24:00,
2013-03-12 02:30:00,36.7,15.2,29.47,South,186,4.0,4.0,41,0.00,,---,0.00,VWS V14.01,2013-03-12 06:30:00,
2013-03-12 02:36:00,36.7,15.2,29.47,SE,128,6.3,6.3,41,0.00,,---,0.00,VWS V14.01,2013-03-12 06:36:00,
2013-03-12 02:42:00,36.7,15.2,29.47,SSE,167,0.0,3.1,41,0.00,,---,0.00,VWS V14.01,2013-03-12 06:42:00,
2013-03-12 02:48:00,36.5,15.1,29.47,East,84,3.6,3.6,41,0.00,,---,0.00,VWS V14.01,2013-03-12 06:48:00,
2013-03-12 02:53:00,36.5,15.1,29.47,SSW,204,3.6,3.6,41,0.00,,---,0.00,VWS V14.01,2013-03-12 06:53:00,
2013-03-12 02:59:00,36.5,15.1,29.47,WSW,240,5.4,5.4,41,0.00,,---,0.00,VWS V14.01,2013-03-12 06:59:00,
2013-03-12 03:04:00,36.5,15.1,29.47,ENE,76,3.6,3.6,41,0.00,,---,0.00,VWS V14.01,2013-03-12 07:04:00,
2013-03-12 03:10:00,36.3,14.9,29.47,ESE,103,6.3,6.3,41,0.00,,---,0.00,VWS V14.01,2013-03-12 07:10:00,
2013-03-12 03:16:00,36.3,14.9,29.50,ESE,103,6.3,6.3,41,0.00,,---,0.00,VWS V14.01,2013-03-12 07:16:00,
2013-03-12 03:22:00,36.5,13.9,29.50,South,183,4.0,4.0,39,0.00,,---,0.00,VWS V14.01,2013-03-12 07:22:00,
2013-03-12 03:27:00,36.3,14.3,29.50,SSW,201,3.6,3.6,40,0.00,,---,0.00,VWS V14.01,2013-03-12 07:27:00,
2013-03-12 03:33:00,36.1,14.2,29.50,SW,231,5.4,5.4,40,0.00,,---,0.00,VWS V14.01,2013-03-12 07:33:00,
2013-03-12 03:38:00,36.1,14.2,29.50,South,187,3.6,3.6,40,0.00,,---,0.00,VWS V14.01,2013-03-12 07:38:00,
2013-03-12 03:44:00,36.1,13.6,29.50,SW,215,8.7,8.7,39,0.00,,---,0.00,VWS V14.01,2013-03-12 07:44:00,
2013-03-12 03:49:00,36.0,13.4,29.50,SSW,198,2.7,8.7,39,0.00,,---,0.00,VWS V14.01,2013-03-12 07:49:00,
2013-03-12 03:55:00,36.0,14.0,29.50,SW,226,2.7,2.7,40,0.00,,---,0.00,VWS V14.01,2013-03-12 07:55:00,
2013-03-12 04:01:00,35.8,13.8,29.50,WSW,252,8.1,8.1,40,0.00,,---,0.00,VWS V14.01,2013-03-12 08:01:00,
2013-03-12 04:07:00,35.6,14.2,29.50,SW,216,5.8,5.8,41,0.00,,---,0.00,VWS V14.01,2013-03-12 08:07:00,
2013-03-12 04:13:00,35.6,14.2,29.50,SSW,212,4.9,4.9,41,0.00,,---,0.00,VWS V14.01,2013-03-12 08:13:00,
2013-03-12 04:19:00,35.4,14.6,29.50,SSW,203,4.0,4.0,42,0.00,,---,0.00,VWS V14.01,2013-03-12 08:19:00,
2013-03-12 04:24:00,35.4,14.6,29.50,SSE,164,6.3,6.3,42,0.00,,---,0.00,VWS V14.01,2013-03-12 08:24:00,
2013-03-12 04:30:00,35.4,14.1,29.50,SSW,206,5.8,5.8,41,0.00,,---,0.00,VWS V14.01,2013-03-12 08:30:00,
2013-03-12 04:36:00,35.4,14.1,29.50,SW,220,2.7,2.7,41,0.00,,---,0.00,VWS V14.01,2013-03-12 08:36:00,
2013-03-12 04:43:00,35.4,14.1,29.50,WSW,237,4.0,5.8,41,0.00,,---,0.00,VWS V14.01,2013-03-12 08:43:00,
2013-03-12 04:48:00,35.2,13.4,29.50,WSW,237,4.0,4.0,40,0.00,,---,0.00,VWS V14.01,2013-03-12 08:48:00,
2013-03-12 04:53:00,35.2,13.9,29.50,ESE,105,6.7,6.7,41,0.00,,---,0.00,VWS V14.01,2013-03-12 08:53:00,
2013-03-12 04:58:00,35.2,13.9,29.50,SSW,192,5.4,5.4,41,0.00,,---,0.00,VWS V14.01,2013-03-12 08:58:00,
2013-03-12 05:03:00,35.2,13.9,29.50,ESE,112,0.0,0.0,41,0.00,,---,0.00,VWS V14.01,2013-03-12 09:03:00,
2013-03-12 05:09:00,35.2,13.9,29.50,South,188,2.2,2.2,41,0.00,,---,0.00,VWS V14.01,2013-03-12 09:09:00,
2013-03-12 05:14:00,35.1,13.2,29.50,South,178,8.1,8.1,40,0.00,,---,0.00,VWS V14.01,2013-03-12 09:14:00,
2013-03-12 05:19:00,35.6,15.3,29.50,ESE,118,3.1,3.1,43,0.00,,---,0.00,VWS V14.01,2013-03-12 09:19:00,
2013-03-12 05:24:00,35.4,14.1,29.50,SSE,156,0.0,4.0,41,0.00,,---,0.00,VWS V14.01,2013-03-12 09:24:00,
2013-03-12 05:30:00,35.4,14.1,29.50,South,177,3.6,3.6,41,0.00,,---,0.00,VWS V14.01,2013-03-12 09:30:00,
2013-03-12 05:36:00,35.4,14.1,29.50,SW,235,4.0,4.0,41,0.00,,---,0.00,VWS V14.01,2013-03-12 09:36:00,
2013-03-12 05:42:00,35.4,14.1,29.50,South,191,2.2,2.7,41,0.00,,---,0.00,VWS V14.01,2013-03-12 09:42:00,
2013-03-12 05:47:00,35.4,14.1,29.50,SSW,206,2.2,3.1,41,0.00,,---,0.00,VWS V14.01,2013-03-12 09:47:00,
2013-03-12 05:52:00,35.4,14.1,29.50,SW,222,5.8,5.8,41,0.00,,---,0.00,VWS V14.01,2013-03-12 09:52:00,
2013-03-12 05:58:00,35.4,13.5,29.50,SE,125,5.4,5.4,40,0.00,,---,0.00,VWS V14.01,2013-03-12 09:58:00,
2013-03-12 06:04:00,35.1,13.2,29.53,SE,126,0.0,2.7,40,0.00,,---,0.00,VWS V14.01,2013-03-12 10:04:00,
2013-03-12 06:09:00,35.1,13.2,29.53,ESE,118,3.1,3.6,40,0.00,,---,0.00,VWS V14.01,2013-03-12 10:09:00,
2013-03-12 06:15:00,35.1,13.2,29.53,SSW,202,3.1,3.1,40,0.00,,---,0.00,VWS V14.01,2013-03-12 10:15:00,
2013-03-12 06:22:00,34.9,13.0,29.53,SW,230,4.5,4.5,40,0.00,,---,0.00,VWS V14.01,2013-03-12 10:22:00,
2013-03-12 06:28:00,34.9,13.0,29.53,SSE,158,2.2,2.2,40,0.00,,---,0.00,VWS V14.01,2013-03-12 10:28:00,
2013-03-12 06:33:00,34.9,13.0,29.53,SSW,201,2.2,2.2,40,0.00,,---,0.00,VWS V14.01,2013-03-12 10:33:00,
2013-03-12 06:39:00,34.9,13.0,29.53,West,268,0.0,2.7,40,0.00,,---,0.00,VWS V14.01,2013-03-12 10:39:00,
2013-03-12 06:44:00,35.6,18.3,29.50,WSW,239,2.7,3.1,49,0.00,,---,0.00,VWS V14.01,2013-03-12 10:44:00,
2013-03-12 06:50:00,35.4,15.7,29.50,SSW,193,3.6,6.3,44,0.00,,---,0.00,VWS V14.01,2013-03-12 10:50:00,
2013-03-12 06:55:00,34.9,13.0,29.50,South,178,5.8,5.8,40,0.00,,---,0.00,VWS V14.01,2013-03-12 10:55:00,
2013-03-12 07:01:00,34.9,13.0,29.53,SW,230,3.6,3.6,40,0.00,,---,0.00,VWS V14.01,2013-03-12 11:01:00,
2013-03-12 07:06:00,34.9,13.0,29.53,SE,144,2.7,2.7,40,0.00,,---,0.00,VWS V14.01,2013-03-12 11:06:00,
2013-03-12 07:12:00,34.7,12.9,29.53,SW,222,2.7,2.7,40,0.00,,---,0.00,VWS V14.01,2013-03-12 11:12:00,
2013-03-12 07:17:00,34.7,12.9,29.53,WSW,241,2.7,2.7,40,0.00,,---,0.00,VWS V14.01,2013-03-12 11:17:00,
2013-03-12 07:22:00,34.5,13.8,29.53,ESE,113,3.6,3.6,42,0.00,,---,0.00,VWS V14.01,2013-03-12 11:22:00,
2013-03-12 07:28:00,34.5,13.8,29.53,WSW,239,2.7,3.6,42,0.00,,---,0.00,VWS V14.01,2013-03-12 11:28:00,
2013-03-12 07:34:00,34.5,13.8,29.53,SSW,211,0.0,0.0,42,0.00,,---,0.00,VWS V14.01,2013-03-12 11:34:00,
2013-03-12 07:40:00,34.2,14.5,29.53,SSW,211,0.0,0.0,44,0.00,,---,0.00,VWS V14.01,2013-03-12 11:40:00,
2013-03-12 07:47:00,34.2,15.6,29.53,ESE,105,3.1,3.1,46,0.00,,---,0.00,VWS V14.01,2013-03-12 11:47:00,
2013-03-12 07:53:00,34.2,15.1,29.53,SSE,153,4.0,4.0,45,0.00,,---,0.00,VWS V14.01,2013-03-12 11:53:00,
2013-03-12 07:59:00,34.2,15.1,29.53,SW,217,0.0,0.0,45,0.00,,---,0.00,VWS V14.01,2013-03-12 11:59:00,
2013-03-12 08:04:00,34.5,18.7,29.53,WSW,248,0.0,0.0,52,0.00,,---,0.00,VWS V14.01,2013-03-12 12:04:00,
2013-03-12 08:10:00,34.5,18.7,29.53,South,186,0.0,0.0,52,0.00,,---,0.00,VWS V14.01,2013-03-12 12:10:00,
2013-03-12 08:15:00,34.0,14.4,29.56,SSE,154,2.7,3.6,44,0.00,,---,0.00,VWS V14.01,2013-03-12 12:15:00,
2013-03-12 08:21:00,33.8,14.2,29.56,SSE,160,5.4,5.4,44,0.00,,---,0.00,VWS V14.01,2013-03-12 12:21:00,
2013-03-12 08:27:00,33.8,13.7,29.56,South,183,2.7,2.7,43,0.00,,---,0.00,VWS V14.01,2013-03-12 12:27:00,
2013-03-12 08:32:00,34.0,13.9,29.56,ESE,105,3.1,3.1,43,0.00,,---,0.00,VWS V14.01,2013-03-12 12:32:00,
2013-03-12 08:38:00,34.0,12.8,29.56,SW,224,2.2,2.2,41,0.00,,---,0.00,VWS V14.01,2013-03-12 12:38:00,
2013-03-12 08:44:00,34.0,12.8,29.56,ESE,117,0.0,0.0,41,0.00,,---,0.00,VWS V14.01,2013-03-12 12:44:00,
2013-03-12 08:49:00,34.2,13.5,29.56,SE,129,0.0,0.0,42,0.00,,---,0.00,VWS V14.01,2013-03-12 12:49:00,
2013-03-12 08:55:00,35.4,20.4,29.56,South,173,0.0,0.0,54,0.00,,---,0.00,VWS V14.01,2013-03-12 12:55:00,
2013-03-12 09:00:00,35.4,20.4,29.56,SSW,213,3.6,3.6,54,0.00,,---,0.00,VWS V14.01,2013-03-12 13:00:00,
2013-03-12 09:05:00,34.0,13.3,29.56,SSW,206,2.7,2.7,42,0.00,,---,0.00,VWS V14.01,2013-03-12 13:05:00,
2013-03-12 09:10:00,34.0,13.9,29.56,SSW,207,0.0,0.0,43,0.00,,---,0.00,VWS V14.01,2013-03-12 13:10:00,
2013-03-12 09:16:00,34.0,13.9,29.56,SW,217,3.6,3.6,43,0.00,,---,0.00,VWS V14.01,2013-03-12 13:16:00,
2013-03-12 09:22:00,33.8,13.1,29.56,SSW,209,4.9,4.9,42,0.00,,---,0.00,VWS V14.01,2013-03-12 13:22:00,
2013-03-12 09:27:00,33.8,12.6,29.56,SSW,209,4.9,4.9,41,0.00,,---,0.00,VWS V14.01,2013-03-12 13:27:00,
2013-03-12 09:33:00,34.0,13.3,29.56,SSW,200,2.7,4.0,42,0.00,,---,0.00,VWS V14.01,2013-03-12 13:33:00,
2013-03-12 09:38:00,34.0,12.8,29.56,WSW,256,6.3,6.3,41,0.00,,---,0.00,VWS V14.01,2013-03-12 13:38:00,
2013-03-12 09:43:00,34.0,12.8,29.56,SW,227,2.7,3.6,41,0.00,,---,0.00,VWS V14.01,2013-03-12 13:43:00,
2013-03-12 09:48:00,34.3,13.1,29.56,SW,233,0.0,0.0,41,0.00,,---,0.00,VWS V14.01,2013-03-12 13:48:00,
2013-03-12 09:54:00,34.3,13.1,29.56,SSW,192,3.1,4.9,41,0.00,,---,0.00,VWS V14.01,2013-03-12 13:54:00,
2013-03-12 09:59:00,34.2,11.8,29.59,SE,127,6.3,6.3,39,0.00,,---,0.00,VWS V14.01,2013-03-12 13:59:00,
2013-03-12 10:05:00,34.2,11.8,29.59,West,262,3.6,4.0,39,0.00,,---,0.00,VWS V14.01,2013-03-12 14:05:00,
2013-03-12 10:10:00,34.2,11.8,29.59,SW,228,3.1,3.1,39,0.00,,---,0.00,VWS V14.01,2013-03-12 14:10:00,
2013-03-12 10:15:00,34.7,13.4,29.59,SW,221,2.7,2.7,41,0.00,,---,0.00,VWS V14.01,2013-03-12 14:15:00,
2013-03-12 10:20:00,34.7,13.4,29.59,South,181,2.7,2.7,41,0.00,,---,0.00,VWS V14.01,2013-03-12 14:20:00,
2013-03-12 10:26:00,35.1,13.2,29.59,SW,221,2.7,3.1,40,0.00,,---,0.00,VWS V14.01,2013-03-12 14:26:00,
2013-03-12 10:32:00,35.1,13.2,29.59,SW,225,2.7,3.6,40,0.00,,---,0.00,VWS V14.01,2013-03-12 14:32:00,
2013-03-12 10:37:00,35.6,10.0,29.59,South,175,3.6,3.6,34,0.00,,---,0.00,VWS V14.01,2013-03-12 14:37:00,
2013-03-12 10:43:00,35.6,9.4,29.59,SSW,198,2.2,2.2,33,0.00,,---,0.00,VWS V14.01,2013-03-12 14:43:00,
2013-03-12 10:48:00,36.0,9.7,29.59,WSW,238,5.8,5.8,33,0.00,,---,0.00,VWS V14.01,2013-03-12 14:48:00,
2013-03-12 10:54:00,36.7,15.2,29.59,SSW,198,3.6,3.6,41,0.00,,---,0.00,VWS V14.01,2013-03-12 14:54:00,
2013-03-12 10:59:00,36.7,15.2,29.59,SSW,209,4.0,4.9,41,0.00,,---,0.00,VWS V14.01,2013-03-12 14:59:00,
2013-03-12 11:05:00,36.7,15.2,29.59,SSW,210,2.7,2.7,41,0.00,,---,0.00,VWS V14.01,2013-03-12 15:05:00,
2013-03-12 11:11:00,35.6,10.7,29.59,South,183,4.0,4.0,35,0.00,,---,0.00,VWS V14.01,2013-03-12 15:11:00,
2013-03-12 11:17:00,35.8,11.4,29.59,SW,233,3.6,3.6,36,0.00,,---,0.00,VWS V14.01,2013-03-12 15:17:00,
2013-03-12 11:23:00,36.5,10.1,29.59,North,2,3.6,3.6,33,0.00,,---,0.00,VWS V14.01,2013-03-12 15:23:00,
2013-03-12 11:29:00,36.5,10.1,29.59,SW,221,3.1,3.1,33,0.00,,---,0.00,VWS V14.01,2013-03-12 15:29:00,
2013-03-12 11:34:00,36.1,9.1,29.59,SW,230,4.0,4.0,32,0.00,,---,0.00,VWS V14.01,2013-03-12 15:34:00,
2013-03-12 11:40:00,36.1,9.1,29.59,WSW,237,2.7,4.0,32,0.00,,---,0.00,VWS V14.01,2013-03-12 15:40:00,
2013-03-12 11:45:00,36.1,9.1,29.59,South,169,4.0,4.0,32,0.00,,---,0.00,VWS V14.01,2013-03-12 15:45:00,
2013-03-12 11:51:00,35.8,9.5,29.59,SSW,203,6.7,6.7,33,0.00,,---,0.00,VWS V14.01,2013-03-12 15:51:00,
2013-03-12 11:57:00,35.6,8.7,29.59,SSW,205,8.3,8.3,32,0.00,,---,0.00,VWS V14.01,2013-03-12 15:57:00,
2013-03-12 12:02:00,35.8,9.5,29.59,SW,228,5.4,5.4,33,0.00,,---,0.00,VWS V14.01,2013-03-12 16:02:00,
2013-03-12 12:08:00,35.2,9.7,29.59,SSW,195,6.3,6.3,34,0.00,,---,0.00,VWS V14.01,2013-03-12 16:08:00,
2013-03-12 12:13:00,35.2,9.7,29.59,NE,39,3.1,3.1,34,0.00,,---,0.00,VWS V14.01,2013-03-12 16:13:00,
2013-03-12 12:19:00,35.1,11.4,29.59,SW,214,2.2,2.2,37,0.00,,---,0.00,VWS V14.01,2013-03-12 16:19:00,
2013-03-12 12:24:00,35.1,10.8,29.59,WSW,240,4.0,4.0,36,0.00,,---,0.00,VWS V14.01,2013-03-12 16:24:00,
2013-03-12 12:29:00,35.4,9.9,29.59,SW,218,3.1,3.1,34,0.00,,---,0.00,VWS V14.01,2013-03-12 16:29:00,
2013-03-12 12:34:00,35.4,9.9,29.59,SW,225,5.4,5.4,34,0.00,,---,0.00,VWS V14.01,2013-03-12 16:34:00,
2013-03-12 12:40:00,36.3,10.0,29.59,SSW,201,5.4,5.4,33,0.00,,---,0.00,VWS V14.01,2013-03-12 16:40:00,
2013-03-12 12:46:00,36.1,8.4,29.59,West,260,4.0,4.0,31,0.00,,---,0.00,VWS V14.01,2013-03-12 16:46:00,
2013-03-12 12:51:00,36.5,9.5,29.59,South,184,3.1,3.1,32,0.00,,---,0.00,VWS V14.01,2013-03-12 16:51:00,
2013-03-12 12:57:00,36.5,9.5,29.59,SW,214,3.1,3.1,32,0.00,,---,0.00,VWS V14.01,2013-03-12 16:57:00,
2013-03-12 13:03:00,37.8,9.9,29.59,SW,221,5.8,5.8,31,0.00,,---,0.00,VWS V14.01,2013-03-12 17:03:00,
2013-03-12 13:08:00,37.2,8.6,29.59,WSW,254,4.0,4.0,30,0.00,,---,0.00,VWS V14.01,2013-03-12 17:08:00,
2013-03-12 13:14:00,36.7,8.2,29.59,SW,227,6.3,15.0,30,0.00,,---,0.00,VWS V14.01,2013-03-12 17:14:00,
2013-03-12 13:19:00,36.9,8.3,29.59,SE,126,2.2,3.6,30,0.00,,---,0.00,VWS V14.01,2013-03-12 17:19:00,
2013-03-12 13:25:00,36.9,8.3,29.59,SW,230,5.8,5.8,30,0.00,,---,0.00,VWS V14.01,2013-03-12 17:25:00,
2013-03-12 13:31:00,37.0,8.5,29.59,SW,217,6.3,6.3,30,0.00,,---,0.00,VWS V14.01,2013-03-12 17:31:00,
2013-03-12 13:37:00,37.6,9.0,29.59,SSW,197,2.7,2.7,30,0.00,,---,0.00,VWS V14.01,2013-03-12 17:37:00,
2013-03-12 13:42:00,37.8,8.4,29.59,SSE,163,3.1,5.8,29,0.00,,---,0.00,VWS V14.01,2013-03-12 17:42:00,
2013-03-12 13:48:00,37.4,8.1,29.59,East,98,2.7,2.7,29,0.00,,---,0.00,VWS V14.01,2013-03-12 17:48:00,
2013-03-12 13:54:00,37.2,7.9,29.59,WSW,244,2.7,4.9,29,0.00,,---,0.00,VWS V14.01,2013-03-12 17:54:00,
2013-03-12 14:00:00,37.6,8.2,29.59,South,169,10.5,10.5,29,0.00,,---,0.00,VWS V14.01,2013-03-12 18:00:00,
2013-03-12 14:05:00,37.6,8.2,29.59,WSW,244,3.1,3.1,29,0.00,,---,0.00,VWS V14.01,2013-03-12 18:05:00,
2013-03-12 14:11:00,37.4,8.1,29.59,SW,222,4.0,4.0,29,0.00,,---,0.00,VWS V14.01,2013-03-12 18:11:00,
2013-03-12 14:16:00,38.1,8.7,29.59,SW,226,0.0,0.0,29,0.00,,---,0.00,VWS V14.01,2013-03-12 18:16:00,
2013-03-12 14:21:00,38.3,6.4,29.59,WNW,282,4.9,4.9,26,0.00,,---,0.00,VWS V14.01,2013-03-12 18:21:00,
2013-03-12 14:27:00,37.2,10.8,29.59,SW,215,2.7,2.7,33,0.00,,---,0.00,VWS V14.01,2013-03-12 18:27:00,
2013-03-12 14:32:00,37.2,10.8,29.59,SSW,197,2.7,2.7,33,0.00,,---,0.00,VWS V14.01,2013-03-12 18:32:00,
2013-03-12 14:37:00,36.7,8.2,29.59,SW,229,0.0,4.0,30,0.00,,---,0.00,VWS V14.01,2013-03-12 18:37:00,
2013-03-12 14:42:00,36.7,8.2,29.59,East,101,0.0,5.4,30,0.00,,---,0.00,VWS V14.01,2013-03-12 18:42:00,
2013-03-12 14:47:00,37.2,8.6,29.59,East,89,0.0,0.0,30,0.00,,---,0.00,VWS V14.01,2013-03-12 18:47:00,
2013-03-12 14:53:00,37.4,8.1,29.59,South,169,2.7,2.7,29,0.00,,---,0.00,VWS V14.01,2013-03-12 18:53:00,
2013-03-12 14:59:00,37.4,8.1,29.59,NNE,32,5.8,5.8,29,0.00,,---,0.00,VWS V14.01,2013-03-12 18:59:00,
2013-03-12 15:04:00,35.8,8.1,29.59,WSW,243,2.7,2.7,31,0.00,,---,0.00,VWS V14.01,2013-03-12 19:04:00,
2013-03-12 15:10:00,35.8,8.1,29.59,SW,223,3.1,3.6,31,0.00,,---,0.00,VWS V14.01,2013-03-12 19:10:00,
2013-03-12 15:15:00,36.7,9.6,29.59,SSE,160,0.0,0.0,32,0.00,,---,0.00,VWS V14.01,2013-03-12 19:15:00,
2013-03-12 15:20:00,36.9,9.1,29.59,SW,231,4.9,8.1,31,0.00,,---,0.00,VWS V14.01,2013-03-12 19:20:00,
2013-03-12 15:25:00,36.7,8.2,29.59,SSW,212,5.4,5.4,30,0.00,,---,0.00,VWS V14.01,2013-03-12 19:25:00,
2013-03-12 15:31:00,36.7,8.2,29.59,South,182,5.4,5.4,30,0.00,,---,0.00,VWS V14.01,2013-03-12 19:31:00,
2013-03-12 15:36:00,36.1,8.4,29.59,West,265,2.7,5.4,31,0.00,,---,0.00,VWS V14.01,2013-03-12 19:36:00,
2013-03-12 15:42:00,35.8,7.4,29.59,NNE,31,2.2,2.2,30,0.00,,---,0.00,VWS V14.01,2013-03-12 19:42:00,
2013-03-12 15:48:00,35.6,7.2,29.59,South,171,4.5,4.5,30,0.00,,---,0.00,VWS V14.01,2013-03-12 19:48:00,
2013-03-12 15:53:00,35.4,7.8,29.59,WSW,246,4.9,4.9,31,0.00,,---,0.00,VWS V14.01,2013-03-12 19:53:00,
2013-03-12 15:58:00,36.3,8.6,29.59,East,94,3.1,3.6,31,0.00,,---,0.00,VWS V14.01,2013-03-12 19:58:00,
2013-03-12 16:03:00,36.3,8.6,29.59,SW,223,2.7,4.0,31,0.00,,---,0.00,VWS V14.01,2013-03-12 20:03:00,
2013-03-12 16:08:00,36.9,8.3,29.59,SW,223,2.7,2.7,30,0.00,,---,0.00,VWS V14.01,2013-03-12 20:08:00,
2013-03-12 16:14:00,36.9,8.3,29.59,WSW,250,6.3,6.3,30,0.00,,---,0.00,VWS V14.01,2013-03-12 20:14:00,
2013-03-12 16:20:00,36.7,8.2,29.59,East,84,3.1,3.1,30,0.00,,---,0.00,VWS V14.01,2013-03-12 20:20:00,
2013-03-12 16:25:00,36.7,8.2,29.59,South,178,5.4,5.4,30,0.00,,---,0.00,VWS V14.01,2013-03-12 20:25:00,
2013-03-12 16:31:00,36.7,8.2,29.59,SSE,165,3.1,4.0,30,0.00,,---,0.00,VWS V14.01,2013-03-12 20:31:00,
2013-03-12 16:36:00,36.9,7.6,29.59,South,183,3.6,3.6,29,0.00,,---,0.00,VWS V14.01,2013-03-12 20:36:00,
2013-03-12 16:41:00,36.7,5.9,29.59,South,184,3.6,3.6,27,0.00,,---,0.00,VWS V14.01,2013-03-12 20:41:00,
2013-03-12 16:46:00,36.7,5.9,29.59,SSW,207,5.4,6.7,27,0.00,,---,0.00,VWS V14.01,2013-03-12 20:46:00,
2013-03-12 16:52:00,36.7,7.4,29.59,SW,217,6.3,6.3,29,0.00,,---,0.00,VWS V14.01,2013-03-12 20:52:00,
2013-03-12 16:58:00,36.1,5.4,29.62,SSW,211,2.7,4.0,27,0.00,,---,0.00,VWS V14.01,2013-03-12 20:58:00,
2013-03-12 17:03:00,36.1,5.4,29.62,SW,231,2.7,2.7,27,0.00,,---,0.00,VWS V14.01,2013-03-12 21:03:00,
2013-03-12 17:09:00,35.8,6.7,29.62,South,178,3.6,4.0,29,0.00,,---,0.00,VWS V14.01,2013-03-12 21:09:00,
2013-03-12 17:14:00,35.6,6.5,29.62,SW,224,4.0,4.0,29,0.00,,---,0.00,VWS V14.01,2013-03-12 21:14:00,
2013-03-12 17:20:00,35.4,7.1,29.62,SW,216,3.6,3.6,30,0.00,,---,0.00,VWS V14.01,2013-03-12 21:20:00,
2013-03-12 17:26:00,35.4,7.8,29.62,SSW,212,3.1,7.6,31,0.00,,---,0.00,VWS V14.01,2013-03-12 21:26:00,
2013-03-12 17:31:00,35.1,6.8,29.62,SSW,207,5.4,5.4,30,0.00,,---,0.00,VWS V14.01,2013-03-12 21:31:00,
2013-03-12 17:37:00,35.1,6.8,29.62,WSW,248,6.3,6.3,30,0.00,,---,0.00,VWS V14.01,2013-03-12 21:37:00,
2013-03-12 17:43:00,34.9,7.3,29.62,NE,48,3.6,3.6,31,0.00,,---,0.00,VWS V14.01,2013-03-12 21:43:00,
2013-03-12 17:48:00,35.1,7.5,29.62,NE,37,3.1,3.1,31,0.00,,---,0.00,VWS V14.01,2013-03-12 21:48:00,
2013-03-12 17:53:00,35.1,6.8,29.62,SE,133,5.4,5.4,30,0.00,,---,0.00,VWS V14.01,2013-03-12 21:53:00,
2013-03-12 17:59:00,34.9,7.3,29.62,South,182,3.1,3.1,31,0.00,,---,0.00,VWS V14.01,2013-03-12 21:59:00,
2013-03-12 18:04:00,34.9,7.3,29.62,SE,129,2.2,4.0,31,0.00,,---,0.00,VWS V14.01,2013-03-12 22:04:00,
2013-03-12 18:09:00,34.9,6.6,29.62,SSE,159,5.4,5.4,30,0.00,,---,0.00,VWS V14.01,2013-03-12 22:09:00,
2013-03-12 18:15:00,34.9,6.6,29.62,SE,132,3.1,3.1,30,0.00,,---,0.00,VWS V14.01,2013-03-12 22:15:00,
2013-03-12 18:20:00,34.5,6.3,29.62,WSW,238,4.9,4.9,30,0.00,,---,0.00,VWS V14.01,2013-03-12 22:20:00,
2013-03-12 18:26:00,34.3,6.1,29.62,SW,215,7.2,7.2,30,0.00,,---,0.00,VWS V14.01,2013-03-12 22:26:00,
2013-03-12 18:31:00,34.3,6.1,29.62,SSE,166,4.0,4.0,30,0.00,,---,0.00,VWS V14.01,2013-03-12 22:31:00,
2013-03-12 18:37:00,34.0,5.8,29.62,SW,223,5.8,5.8,30,0.00,,---,0.00,VWS V14.01,2013-03-12 22:37:00,
2013-03-12 18:42:00,34.0,5.8,29.62,SSE,152,5.8,5.8,30,0.00,,---,0.00,VWS V14.01,2013-03-12 22:42:00,
2013-03-12 18:48:00,34.0,5.8,29.62,SSW,212,3.6,3.6,30,0.00,,---,0.00,VWS V14.01,2013-03-12 22:48:00,
2013-03-12 18:53:00,34.0,5.8,29.62,SSW,212,2.2,5.4,30,0.00,,---,0.00,VWS V14.01,2013-03-12 22:53:00,
2013-03-12 18:58:00,34.2,6.0,29.65,WSW,244,3.1,3.1,30,0.00,,---,0.00,VWS V14.01,2013-03-12 22:58:00,
2013-03-12 19:04:00,34.7,9.9,29.65,WSW,241,3.1,4.0,35,0.00,,---,0.00,VWS V14.01,2013-03-12 23:04:00,
2013-03-12 19:09:00,34.7,9.9,29.65,SSW,202,2.7,5.4,35,0.00,,---,0.00,VWS V14.01,2013-03-12 23:09:00,
2013-03-12 19:15:00,33.8,3.4,29.62,WSW,240,5.4,5.4,27,0.00,,---,0.00,VWS V14.01,2013-03-12 23:15:00,
2013-03-12 19:20:00,33.8,5.7,29.62,SE,131,6.3,6.3,30,0.00,,---,0.00,VWS V14.01,2013-03-12 23:20:00,
2013-03-12 19:27:00,33.6,4.0,29.62,SE,143,3.1,3.1,28,0.00,,---,0.00,VWS V14.01,2013-03-12 23:27:00,
2013-03-12 19:33:00,33.6,1.6,29.65,SW,214,4.0,4.0,25,0.00,,---,0.00,VWS V14.01,2013-03-12 23:33:00,
2013-03-12 19:38:00,33.6,1.6,29.65,SW,214,4.0,4.0,25,0.00,,---,0.00,VWS V14.01,2013-03-12 23:38:00,
2013-03-12 19:43:00,33.4,1.4,29.65,SSW,209,4.9,4.9,25,0.00,,---,0.00,VWS V14.01,2013-03-12 23:43:00,
2013-03-12 19:49:00,33.3,1.2,29.65,SW,227,3.6,3.6,25,0.00,,---,0.00,VWS V14.01,2013-03-12 23:49:00,
2013-03-12 19:54:00,33.1,-0.7,29.65,SW,231,6.3,6.3,23,0.00,,---,0.00,VWS V14.01,2013-03-12 23:54:00,
2013-03-12 20:00:00,33.1,-0.7,29.65,SSW,211,6.7,7.6,23,0.00,,---,0.00,VWS V14.01,2013-03-13 00:00:00,
2013-03-12 20:05:00,32.9,-0.8,29.65,SSW,208,2.7,6.7,23,0.00,,---,0.00,VWS V14.01,2013-03-13 00:05:00,
2013-03-12 20:11:00,33.1,1.1,29.65,SSE,157,0.0,2.2,25,0.00,,---,0.00,VWS V14.01,2013-03-13 00:11:00,
2013-03-12 20:17:00,32.7,0.8,29.65,SSE,150,2.2,2.2,25,0.00,,---,0.00,VWS V14.01,2013-03-13 00:17:00,
2013-03-12 20:22:00,32.7,0.8,29.65,South,170,0.0,0.0,25,0.00,,---,0.00,VWS V14.01,2013-03-13 00:22:00,
2013-03-12 20:28:00,32.9,5.6,29.65,SSE,150,0.0,2.7,31,0.00,,---,0.00,VWS V14.01,2013-03-13 00:28:00,
2013-03-12 20:33:00,33.1,5.0,29.65,South,184,3.6,3.6,30,0.00,,---,0.00,VWS V14.01,2013-03-13 00:33:00,
2013-03-12 20:39:00,32.9,3.4,29.65,SSW,197,2.7,2.7,28,0.00,,---,0.00,VWS V14.01,2013-03-13 00:39:00,
2013-03-12 20:44:00,32.5,4.6,29.65,WSW,245,3.6,3.6,30,0.00,,---,0.00,VWS V14.01,2013-03-13 00:44:00,
2013-03-12 20:50:00,32.5,4.6,29.65,SW,227,2.7,2.7,30,0.00,,---,0.00,VWS V14.01,2013-03-13 00:50:00,
2013-03-12 20:56:00,32.5,4.6,29.65,East,83,4.0,4.0,30,0.00,,---,0.00,VWS V14.01,2013-03-13 00:56:00,
2013-03-12 21:02:00,32.4,5.1,29.65,SW,229,3.6,3.6,31,0.00,,---,0.00,VWS V14.01,2013-03-13 01:02:00,
2013-03-12 21:08:00,32.4,5.1,29.65,SW,223,3.6,3.6,31,0.00,,---,0.00,VWS V14.01,2013-03-13 01:08:00,
2013-03-12 21:14:00,32.4,5.1,29.65,SE,140,2.2,3.1,31,0.00,,---,0.00,VWS V14.01,2013-03-13 01:14:00,
2013-03-12 21:19:00,32.4,5.8,29.65,SSE,162,0.0,0.0,32,0.00,,---,0.00,VWS V14.01,2013-03-13 01:19:00,
2013-03-12 21:25:00,34.0,16.8,29.65,South,185,0.0,0.0,49,0.00,,---,0.00,VWS V14.01,2013-03-13 01:25:00,
2013-03-12 21:30:00,34.9,20.8,29.65,South,185,0.0,0.0,56,0.00,,---,0.00,VWS V14.01,2013-03-13 01:30:00,
2013-03-12 21:36:00,34.3,19.0,29.65,South,173,2.2,2.2,53,0.00,,---,0.00,VWS V14.01,2013-03-13 01:36:00,
2013-03-12 21:42:00,32.7,11.1,29.65,SW,225,2.7,2.7,40,0.00,,---,0.00,VWS V14.01,2013-03-13 01:42:00,
2013-03-12 21:48:00,32.7,11.1,29.65,SSW,207,0.0,0.0,40,0.00,,---,0.00,VWS V14.01,2013-03-13 01:48:00,
2013-03-12 21:53:00,32.2,11.7,29.65,SSW,210,0.0,0.0,42,0.00,,---,0.00,VWS V14.01,2013-03-13 01:53:00,
2013-03-12 21:59:00,31.6,11.7,29.65,SW,218,2.7,2.7,43,0.00,,---,0.00,VWS V14.01,2013-03-13 01:59:00,
2013-03-12 22:04:00,31.1,11.8,29.65,SW,218,0.0,2.7,44,0.00,,---,0.00,VWS V14.01,2013-03-13 02:04:00,
2013-03-12 22:10:00,31.1,12.2,29.65,SW,226,3.6,3.6,45,0.00,,---,0.00,VWS V14.01,2013-03-13 02:10:00,
2013-03-12 22:16:00,30.7,11.4,29.65,SE,127,4.0,4.0,44,0.00,,---,0.00,VWS V14.01,2013-03-13 02:16:00,
2013-03-12 22:21:00,30.7,11.4,29.65,South,170,0.0,0.0,44,0.00,,---,0.00,VWS V14.01,2013-03-13 02:21:00,
2013-03-12 22:26:00,30.7,11.4,29.65,WSW,256,6.3,6.3,44,0.00,,---,0.00,VWS V14.01,2013-03-13 02:26:00,
2013-03-12 22:31:00,30.7,10.9,29.65,South,190,0.0,0.0,43,0.00,,---,0.00,VWS V14.01,2013-03-13 02:31:00,
2013-03-12 22:37:00,30.7,10.4,29.65,SSW,211,3.1,4.0,42,0.00,,---,0.00,VWS V14.01,2013-03-13 02:37:00,
2013-03-12 22:42:00,30.9,10.0,29.65,SW,221,0.0,0.0,41,0.00,,---,0.00,VWS V14.01,2013-03-13 02:42:00,
2013-03-12 22:48:00,30.7,10.4,29.65,SSE,168,0.0,3.6,42,0.00,,---,0.00,VWS V14.01,2013-03-13 02:48:00,
2013-03-12 22:53:00,31.5,14.5,29.65,SSE,158,3.6,3.6,49,0.00,,---,0.00,VWS V14.01,2013-03-13 02:53:00,
2013-03-12 22:59:00,30.9,14.5,29.65,South,185,2.7,2.7,50,0.00,,---,0.00,VWS V14.01,2013-03-13 02:59:00,
2013-03-12 23:04:00,30.9,14.5,29.65,SSW,209,3.1,3.1,50,0.00,,---,0.00,VWS V14.01,2013-03-13 03:04:00,
2013-03-12 23:10:00,30.0,10.2,29.65,ESE,107,0.0,0.0,43,0.00,,---,0.00,VWS V14.01,2013-03-13 03:10:00,
2013-03-12 23:15:00,29.8,10.1,29.65,ESE,104,2.7,2.7,43,0.00,,---,0.00,VWS V14.01,2013-03-13 03:15:00,
2013-03-12 23:20:00,29.8,10.1,29.65,South,173,0.0,0.0,43,0.00,,---,0.00,VWS V14.01,2013-03-13 03:20:00,
2013-03-12 23:25:00,30.0,10.2,29.65,WSW,242,3.6,3.6,43,0.00,,---,0.00,VWS V14.01,2013-03-13 03:25:00,
2013-03-12 23:31:00,30.0,10.2,29.65,SE,135,2.2,2.2,43,0.00,,---,0.00,VWS V14.01,2013-03-13 03:31:00,
2013-03-12 23:36:00,29.8,10.1,29.65,South,171,0.0,0.0,43,0.00,,---,0.00,VWS V14.01,2013-03-13 03:36:00,
2013-03-12 23:42:00,29.8,10.1,29.65,SW,229,2.7,2.7,43,0.00,,---,0.00,VWS V14.01,2013-03-13 03:42:00,
2013-03-12 23:48:00,29.8,10.1,29.65,SSW,200,0.0,0.0,43,0.00,,---,0.00,VWS V14.01,2013-03-13 03:48:00,
2013-03-12 23:53:00,29.8,9.6,29.65,SSE,153,0.0,2.7,42,0.00,,---,0.00,VWS V14.01,2013-03-13 03:53:00,
2013-03-12 23:59:00,29.8,9.6,29.65,SE,130,0.0,0.0,42,0.00,,---,0.00,VWS V14.01,2013-03-13 03:59:00,